Time;durP1;ratioP1;P1;durP2;ratioP2;P2;SDS_P1;SDS_P2;PMS_P1;PMS_P2;Temp;Humidity;BMP_temperature;BMP_pressure;BME280_temperature;BME280_humidity;BME280_pressure;Samples;Min_cycle;Max_cycle;Signal;HPM_P1;HPM_P2
2022/05/18 00:01:00;;;;;;;14.15;11.27;;;13.30;99.90;;;;;;5050115;28;20100;-49
2022/05/18 00:03:35;;;;;;;14.95;11.27;;;13.40;99.90;;;;;;5049848;28;20025;-52
2022/05/18 00:06:02;;;;;;;14.88;12.20;;;13.50;99.90;;;;;;5049742;28;20363;-48
2022/05/18 00:08:35;;;;;;;17.92;12.68;;;13.60;99.90;;;;;;5049818;28;20017;-52
2022/05/18 00:11:03;;;;;;;12.50;11.20;;;13.70;99.90;;;;;;5049861;28;20021;-49
2022/05/18 00:13:29;;;;;;;14.35;10.98;;;13.80;99.90;;;;;;5049756;28;21048;-53
2022/05/18 00:15:54;;;;;;;15.38;10.35;;;13.90;99.90;;;;;;5049490;28;20040;-51
2022/05/18 00:18:20;;;;;;;14.38;10.70;;;14.00;99.90;;;;;;5049764;28;20033;-53
2022/05/18 00:20:46;;;;;;;14.98;11.15;;;14.10;99.90;;;;;;5053347;28;20035;-54
2022/05/18 00:23:11;;;;;;;11.27;10.18;;;14.10;99.90;;;;;;5053175;28;20049;-53
2022/05/18 00:25:40;;;;;;;14.20;9.93;;;14.20;99.90;;;;;;5053064;28;20035;-53
2022/05/18 00:28:06;;;;;;;12.93;10.98;;;14.20;99.90;;;;;;5053725;28;20036;-50
2022/05/18 00:30:33;;;;;;;16.73;10.82;;;14.30;99.90;;;;;;5053133;28;20090;-54
2022/05/18 00:33:05;;;;;;;21.00;10.45;;;14.30;99.90;;;;;;5051836;28;20021;-51
2022/05/18 00:35:32;;;;;;;13.98;10.52;;;14.30;99.90;;;;;;5053139;28;20079;-53
2022/05/18 00:37:58;;;;;;;14.25;10.05;;;14.30;99.90;;;;;;5052989;28;20434;-48
2022/05/18 00:40:24;;;;;;;17.05;10.18;;;14.40;99.90;;;;;;5053119;28;20017;-49
2022/05/18 00:42:50;;;;;;;15.20;9.70;;;14.40;99.90;;;;;;5052717;28;20017;-50
2022/05/18 00:45:16;;;;;;;15.15;9.88;;;14.40;99.90;;;;;;5052973;28;20021;-50
2022/05/18 00:47:42;;;;;;;16.52;10.57;;;14.40;99.90;;;;;;5052863;28;20036;-54
2022/05/18 00:50:38;;;;;;;10.55;9.45;;;14.30;99.90;;;;;;5052781;28;20021;-47
2022/05/18 00:53:04;;;;;;;13.40;9.70;;;14.30;99.90;;;;;;5052254;28;20500;-47
2022/05/18 00:55:33;;;;;;;14.07;10.30;;;14.30;99.90;;;;;;5052704;28;20036;-49
2022/05/18 00:58:29;;;;;;;11.50;10.30;;;14.40;99.90;;;;;;5052646;28;20032;-48
2022/05/18 01:00:55;;;;;;;11.60;10.13;;;14.50;99.90;;;;;;5050304;28;20400;-49
2022/05/18 01:03:25;;;;;;;18.25;9.93;;;14.50;99.90;;;;;;5052814;28;20032;-55
2022/05/18 01:06:07;;;;;;;11.40;10.20;;;14.50;99.90;;;;;;5052435;28;20087;-50
2022/05/18 01:08:46;;;;;;;15.02;9.95;;;14.60;99.90;;;;;;5052614;28;20021;-51
2022/05/18 01:11:12;;;;;;;10.80;9.70;;;14.50;99.90;;;;;;5052471;28;20024;-48
2022/05/18 01:13:38;;;;;;;12.63;9.95;;;14.50;99.90;;;;;;5050868;28;20047;-50
2022/05/18 01:16:04;;;;;;;16.45;9.27;;;14.40;99.90;;;;;;5052525;28;20029;-49
2022/05/18 01:18:29;;;;;;;16.15;10.38;;;14.40;99.90;;;;;;5052279;28;20020;-50
2022/05/18 01:20:55;;;;;;;17.35;9.98;;;14.30;99.90;;;;;;5052176;28;20051;-53
2022/05/18 01:23:34;;;;;;;15.32;9.70;;;14.20;99.90;;;;;;5052180;28;20056;-51
2022/05/18 01:26:17;;;;;;;14.05;9.93;;;14.10;99.90;;;;;;5051990;28;20024;-50
2022/05/18 01:29:13;;;;;;;17.20;10.75;;;14.10;99.90;;;;;;5052357;28;20539;-55
2022/05/18 01:31:50;;;;;;;12.15;10.27;;;14.10;99.90;;;;;;5050594;28;20040;-50
2022/05/18 01:34:19;;;;;;;13.40;10.85;;;14.10;99.90;;;;;;5051926;28;20021;-51
2022/05/18 01:36:45;;;;;;;13.25;10.38;;;14.00;99.90;;;;;;5051879;28;20032;-48
2022/05/18 01:39:19;;;;;;;20.08;10.95;;;14.00;99.90;;;;;;5050661;28;20021;-52
2022/05/18 01:41:58;;;;;;;14.00;10.43;;;14.00;99.90;;;;;;5051685;28;20056;-50
2022/05/18 01:44:25;;;;;;;15.50;11.57;;;13.90;99.90;;;;;;5051814;28;20244;-50
2022/05/18 01:46:52;;;;;;;12.43;11.07;;;13.90;99.90;;;;;;5051434;28;20025;-49
2022/05/18 01:49:18;;;;;;;16.67;11.13;;;13.80;99.90;;;;;;5051879;28;20444;-51
2022/05/18 01:51:47;;;;;;;13.38;10.73;;;13.90;99.90;;;;;;5051482;28;20017;-50
2022/05/18 01:54:14;;;;;;;14.05;10.52;;;13.90;99.90;;;;;;5051598;28;20102;-50
2022/05/18 01:56:39;;;;;;;11.98;10.18;;;13.90;99.90;;;;;;5051677;28;20024;-52
2022/05/18 01:59:05;;;;;;;13.82;11.38;;;14.00;99.90;;;;;;5051423;28;20029;-52
2022/05/18 02:01:31;;;;;;;13.13;10.43;;;14.00;99.90;;;;;;5051387;28;20108;-50
2022/05/18 02:03:56;;;;;;;18.08;11.45;;;14.00;99.90;;;;;;5051526;28;20039;-50
2022/05/18 02:06:22;;;;;;;13.85;11.85;;;14.00;99.90;;;;;;5051288;28;20532;-51
2022/05/18 02:08:48;;;;;;;28.20;12.52;;;13.90;99.90;;;;;;5051108;28;20096;-50
2022/05/18 02:11:18;;;;;;;17.30;10.95;;;13.90;99.90;;;;;;5051502;28;20526;-52
2022/05/18 02:13:43;;;;;;;14.50;11.50;;;13.90;99.90;;;;;;5051063;28;20029;-49
2022/05/18 02:16:09;;;;;;;18.10;11.13;;;13.90;99.90;;;;;;5051147;28;20032;-49
2022/05/18 02:18:35;;;;;;;13.10;10.95;;;13.90;99.90;;;;;;5051141;28;20388;-51
2022/05/18 02:21:07;;;;;;;11.90;10.70;;;13.90;99.90;;;;;;5051075;28;20025;-50
2022/05/18 02:23:33;;;;;;;11.80;10.02;;;13.90;99.90;;;;;;5051094;28;20055;-52
2022/05/18 02:26:04;;;;;;;14.80;11.50;;;13.90;99.90;;;;;;5050876;28;20029;-50
2022/05/18 02:28:30;;;;;;;10.65;9.55;;;13.90;99.90;;;;;;5050929;28;20071;-52
2022/05/18 02:30:56;;;;;;;14.52;12.43;;;13.80;99.90;;;;;;5050881;28;20013;-53
2022/05/18 02:33:22;;;;;;;12.23;9.98;;;13.80;99.90;;;;;;5050807;28;20025;-50
2022/05/18 02:35:47;;;;;;;14.30;10.18;;;13.70;99.90;;;;;;5050843;28;20416;-50
2022/05/18 02:38:13;;;;;;;14.88;9.93;;;13.70;99.90;;;;;;5050785;28;20025;-50
2022/05/18 02:40:39;;;;;;;14.65;9.93;;;13.70;99.90;;;;;;5050638;28;20040;-48
2022/05/18 02:43:04;;;;;;;11.40;9.20;;;13.70;99.90;;;;;;5050150;28;20028;-54
2022/05/18 02:45:30;;;;;;;17.17;10.02;;;13.80;99.90;;;;;;5050644;28;20059;-48
2022/05/18 02:47:56;;;;;;;13.02;8.82;;;13.80;99.90;;;;;;5050447;28;20029;-55
2022/05/18 02:50:21;;;;;;;17.05;10.60;;;13.80;99.90;;;;;;5050561;28;20392;-48
2022/05/18 02:52:47;;;;;;;14.80;8.77;;;13.80;99.90;;;;;;5050402;28;20074;-52
2022/05/18 02:57:57;;;;;;;11.45;9.07;;;13.70;99.90;;;;;;5050536;28;20039;-49
2022/05/18 03:00:23;;;;;;;11.45;9.20;;;13.70;99.90;;;;;;5050444;28;20021;-49
2022/05/18 03:02:48;;;;;;;11.18;9.45;;;13.70;99.90;;;;;;5050224;28;20032;-52
2022/05/18 03:05:14;;;;;;;13.48;9.60;;;13.70;99.90;;;;;;5050414;28;20116;-50
2022/05/18 03:07:40;;;;;;;13.40;9.35;;;13.60;99.90;;;;;;5050006;28;20060;-52
2022/05/18 03:10:06;;;;;;;14.93;11.32;;;13.60;99.90;;;;;;5050253;28;20025;-52
2022/05/18 03:12:32;;;;;;;10.57;9.30;;;13.60;99.90;;;;;;5050361;28;20388;-52
2022/05/18 03:14:57;;;;;;;11.77;9.02;;;13.60;99.90;;;;;;5050271;28;20029;-54
2022/05/18 03:17:23;;;;;;;17.85;8.95;;;13.60;99.90;;;;;;5050088;28;20036;-52
2022/05/18 03:19:49;;;;;;;11.75;8.30;;;13.50;99.90;;;;;;5050160;28;20086;-50
2022/05/18 03:24:59;;;;;;;16.27;8.68;;;13.50;99.90;;;;;;5050346;28;20052;-51
2022/05/18 03:27:24;;;;;;;13.63;9.77;;;13.40;99.90;;;;;;5050204;28;20025;-53
2022/05/18 03:29:50;;;;;;;14.02;8.70;;;13.40;99.90;;;;;;5049986;28;20048;-48
2022/05/18 03:32:16;;;;;;;17.80;9.18;;;13.30;99.90;;;;;;5050078;28;20028;-50
2022/05/18 03:34:42;;;;;;;10.82;9.63;;;13.30;99.90;;;;;;5049957;28;20380;-49
2022/05/18 03:37:07;;;;;;;15.45;9.07;;;13.20;99.90;;;;;;5050032;28;20155;-50
2022/05/18 03:39:33;;;;;;;16.30;9.07;;;13.20;99.90;;;;;;5050348;28;20036;-53
2022/05/18 03:41:59;;;;;;;13.73;9.00;;;13.10;99.90;;;;;;5050160;28;20033;-49
2022/05/18 03:44:25;;;;;;;13.07;9.40;;;13.10;99.90;;;;;;5049987;28;20032;-53
2022/05/18 03:46:51;;;;;;;14.45;10.05;;;13.10;99.90;;;;;;5050056;28;20022;-50
2022/05/18 03:49:16;;;;;;;16.45;9.20;;;13.00;99.90;;;;;;5050185;28;20490;-48
2022/05/18 03:51:42;;;;;;;12.57;9.02;;;13.00;99.90;;;;;;5049687;28;20063;-49
2022/05/18 03:54:08;;;;;;;10.98;9.18;;;13.00;99.90;;;;;;5050932;28;20013;-49
2022/05/18 03:56:33;;;;;;;10.90;9.05;;;13.00;99.90;;;;;;5053872;28;20103;-50
2022/05/18 03:59:00;;;;;;;12.00;9.20;;;12.90;99.90;;;;;;5053834;28;20112;-53
2022/05/18 04:01:26;;;;;;;12.07;8.63;;;12.90;99.90;;;;;;5053655;28;20021;-48
2022/05/18 04:03:52;;;;;;;14.52;9.23;;;12.90;99.90;;;;;;5053830;28;20029;-53
2022/05/18 04:06:19;;;;;;;12.02;9.82;;;13.00;99.90;;;;;;5053514;28;20117;-49
2022/05/18 04:08:45;;;;;;;15.57;9.95;;;13.00;99.90;;;;;;5053360;28;20021;-48
2022/05/18 04:11:12;;;;;;;10.30;9.20;;;13.00;99.90;;;;;;5053843;28;20053;-49
2022/05/18 04:13:38;;;;;;;16.40;8.82;;;13.10;99.90;;;;;;5053216;28;20033;-55
2022/05/18 04:16:05;;;;;;;11.52;9.00;;;13.10;99.90;;;;;;5053455;28;20408;-52
2022/05/18 04:18:32;;;;;;;14.38;9.05;;;13.10;99.90;;;;;;5053425;28;20472;-54
2022/05/18 04:20:59;;;;;;;10.75;8.75;;;13.10;99.90;;;;;;5053295;28;20511;-53
2022/05/18 04:23:26;;;;;;;11.52;9.07;;;13.20;99.90;;;;;;5053279;28;20052;-52
2022/05/18 04:25:52;;;;;;;11.50;9.05;;;13.30;99.90;;;;;;5053155;28;20441;-50
2022/05/18 04:28:18;;;;;;;9.32;8.35;;;13.30;99.90;;;;;;5053181;28;20032;-48
2022/05/18 04:30:46;;;;;;;13.35;9.20;;;13.30;99.90;;;;;;5053377;28;20010;-55
2022/05/18 04:33:14;;;;;;;13.05;9.98;;;13.40;99.90;;;;;;5053151;28;20021;-49
2022/05/18 04:35:40;;;;;;;15.30;9.18;;;13.40;99.90;;;;;;5052797;28;20028;-47
2022/05/18 04:38:06;;;;;;;14.10;9.80;;;13.40;99.90;;;;;;5053347;28;20024;-50
2022/05/18 04:40:32;;;;;;;13.43;9.75;;;13.50;99.90;;;;;;5052995;28;20027;-52
2022/05/18 04:42:57;;;;;;;12.88;9.00;;;13.50;99.90;;;;;;5053061;28;20358;-53
2022/05/18 04:45:23;;;;;;;13.75;9.57;;;13.60;99.90;;;;;;5052973;28;20029;-51
2022/05/18 04:47:50;;;;;;;16.63;9.98;;;13.60;99.90;;;;;;5052506;28;20040;-49
2022/05/18 04:50:16;;;;;;;16.27;10.27;;;13.60;99.90;;;;;;5053013;28;20025;-54
2022/05/18 04:52:42;;;;;;;17.67;10.13;;;13.70;99.90;;;;;;5052633;28;20025;-53
2022/05/18 04:55:09;;;;;;;17.52;9.88;;;13.70;99.90;;;;;;5052706;28;20024;-50
2022/05/18 04:57:35;;;;;;;11.43;8.93;;;13.80;99.90;;;;;;5053002;28;20028;-53
2022/05/18 05:00:02;;;;;;;15.52;9.88;;;13.80;99.90;;;;;;5052510;28;20021;-50
2022/05/18 05:02:28;;;;;;;18.85;10.18;;;13.80;99.90;;;;;;5052491;28;20036;-54
2022/05/18 05:04:54;;;;;;;10.95;9.25;;;13.90;99.90;;;;;;5052046;28;20037;-51
2022/05/18 05:07:19;;;;;;;11.15;9.07;;;13.90;99.90;;;;;;5052419;28;20364;-52
2022/05/18 05:09:45;;;;;;;21.20;9.93;;;13.90;99.90;;;;;;5052003;28;20044;-51
2022/05/18 05:12:11;;;;;;;15.00;10.05;;;13.90;99.90;;;;;;5052634;28;20028;-48
2022/05/18 05:14:39;;;;;;;13.60;10.50;;;14.00;99.90;;;;;;5052270;28;20017;-54
2022/05/18 05:17:04;;;;;;;10.23;9.13;;;14.10;99.90;;;;;;5051128;28;20025;-50
2022/05/18 05:19:30;;;;;;;18.08;10.13;;;14.00;99.90;;;;;;5052204;28;20036;-52
2022/05/18 05:21:56;;;;;;;13.50;9.13;;;14.10;99.90;;;;;;5051809;28;20033;-47
2022/05/18 05:24:21;;;;;;;15.30;8.90;;;14.10;99.90;;;;;;5052308;28;20059;-55
2022/05/18 05:26:49;;;;;;;12.60;9.88;;;14.20;99.90;;;;;;5051807;28;20377;-54
2022/05/18 05:29:15;;;;;;;31.85;9.77;;;14.30;99.90;;;;;;5052069;28;20024;-48
2022/05/18 05:31:41;;;;;;;24.65;9.55;;;14.40;99.90;;;;;;5051907;28;20025;-53
2022/05/18 05:34:07;;;;;;;11.80;9.05;;;14.50;99.90;;;;;;5052348;28;20021;-50
2022/05/18 05:36:33;;;;;;;13.30;9.63;;;14.50;99.90;;;;;;5051925;28;20189;-53
2022/05/18 05:38:59;;;;;;;13.60;8.43;;;14.50;99.90;;;;;;5051957;28;20029;-50
2022/05/18 05:41:26;;;;;;;11.18;8.85;;;14.60;99.90;;;;;;5051811;28;20032;-54
2022/05/18 05:43:54;;;;;;;9.57;8.10;;;14.80;99.90;;;;;;5051704;28;20040;-51
2022/05/18 05:46:20;;;;;;;11.57;8.13;;;14.80;99.90;;;;;;5051686;28;20481;-47
2022/05/18 05:48:46;;;;;;;15.05;8.02;;;14.90;99.90;;;;;;5051662;28;20033;-51
2022/05/18 05:51:14;;;;;;;19.88;8.32;;;14.90;99.90;;;;;;5052055;28;20419;-52
2022/05/18 05:53:40;;;;;;;12.98;7.97;;;15.00;99.90;;;;;;5051485;28;20106;-53
2022/05/18 05:56:07;;;;;;;12.13;8.57;;;15.10;99.90;;;;;;5050279;28;20021;-51
2022/05/18 05:58:35;;;;;;;12.45;8.05;;;15.10;99.90;;;;;;5052279;28;20352;-54
2022/05/18 06:01:05;;;;;;;12.13;8.55;;;15.30;99.90;;;;;;5052330;28;20024;-52
2022/05/18 06:03:33;;;;;;;12.48;8.73;;;15.30;99.90;;;;;;5052537;28;20021;-51
2022/05/18 06:05:59;;;;;;;13.25;8.13;;;15.40;99.90;;;;;;5045093;28;20104;-54
2022/05/18 06:08:25;;;;;;;11.43;7.15;;;15.40;99.90;;;;;;5041028;28;20029;-53
2022/05/18 06:10:51;;;;;;;9.85;7.38;;;15.50;99.90;;;;;;5041079;28;20102;-54
2022/05/18 06:13:17;;;;;;;8.77;7.20;;;15.60;99.90;;;;;;5041625;28;20025;-52
2022/05/18 06:15:43;;;;;;;17.92;7.60;;;15.80;99.90;;;;;;5041644;28;20032;-53
2022/05/18 06:18:09;;;;;;;9.48;6.63;;;15.80;99.90;;;;;;5040018;28;20033;-52
2022/05/18 06:20:34;;;;;;;10.60;6.50;;;15.80;99.90;;;;;;5040982;28;20033;-55
2022/05/18 06:23:02;;;;;;;12.70;8.00;;;15.90;99.90;;;;;;5040802;28;20124;-54
2022/05/18 06:25:29;;;;;;;10.32;7.20;;;15.90;99.90;;;;;;5040580;28;20048;-52
2022/05/18 06:27:55;;;;;;;16.05;7.47;;;16.10;99.90;;;;;;5041399;28;20436;-54
2022/05/18 06:30:21;;;;;;;17.60;7.80;;;16.10;99.90;;;;;;5041705;28;20040;-54
2022/05/18 06:32:47;;;;;;;10.38;7.50;;;16.10;99.90;;;;;;5041095;28;20025;-53
2022/05/18 06:35:13;;;;;;;12.13;7.30;;;16.10;99.90;;;;;;5041036;28;20036;-49
2022/05/18 06:37:38;;;;;;;12.07;6.90;;;16.10;99.90;;;;;;5041082;28;20044;-54
2022/05/18 06:40:06;;;;;;;9.05;6.22;;;16.30;99.90;;;;;;5039554;28;20036;-50
2022/05/18 06:42:32;;;;;;;15.98;7.60;;;16.50;99.90;;;;;;5041178;28;20052;-53
2022/05/18 06:44:59;;;;;;;10.48;6.97;;;16.40;99.90;;;;;;5039875;28;21761;-50
2022/05/18 06:47:25;;;;;;;14.05;6.97;;;16.50;99.90;;;;;;5039545;28;20075;-53
2022/05/18 06:49:51;;;;;;;16.27;6.93;;;16.60;99.90;;;;;;5041107;28;20477;-52
2022/05/18 06:52:18;;;;;;;12.80;7.03;;;16.70;99.90;;;;;;5041285;28;20571;-53
2022/05/18 06:54:44;;;;;;;10.60;6.97;;;16.70;99.90;;;;;;5040462;28;20024;-52
2022/05/18 06:57:10;;;;;;;12.57;6.82;;;16.80;99.90;;;;;;5040840;28;20063;-52
2022/05/18 06:59:36;;;;;;;13.38;7.00;;;16.90;99.90;;;;;;5041071;28;20083;-54
2022/05/18 07:02:02;;;;;;;9.85;7.22;;;17.00;99.90;;;;;;5040344;28;20036;-50
2022/05/18 07:04:28;;;;;;;9.18;6.35;;;17.10;99.90;;;;;;5041254;28;20021;-52
2022/05/18 07:06:54;;;;;;;13.02;5.82;;;17.20;99.90;;;;;;5040750;28;20376;-51
2022/05/18 07:09:22;;;;;;;9.73;6.70;;;17.30;99.90;;;;;;5040825;28;20556;-51
2022/05/18 07:11:49;;;;;;;8.90;4.57;;;17.40;99.90;;;;;;5039416;28;20037;-48
2022/05/18 07:14:18;;;;;;;11.75;5.85;;;17.40;99.90;;;;;;5040748;28;20108;-54
2022/05/18 07:16:43;;;;;;;12.57;6.28;;;17.40;99.90;;;;;;5040469;28;20025;-55
2022/05/18 07:19:10;;;;;;;14.40;5.25;;;17.50;99.90;;;;;;5041394;28;20338;-50
2022/05/18 07:21:35;;;;;;;8.50;5.47;;;17.70;99.90;;;;;;5040874;28;20033;-50
2022/05/18 07:24:01;;;;;;;6.40;4.70;;;17.70;99.90;;;;;;5040293;28;20126;-53
2022/05/18 07:26:28;;;;;;;13.13;5.00;;;17.80;99.90;;;;;;5040889;28;20410;-52
2022/05/18 07:28:55;;;;;;;12.70;4.95;;;17.90;99.90;;;;;;5043877;28;20033;-54
2022/05/18 07:31:21;;;;;;;12.43;5.25;;;18.10;99.90;;;;;;5056862;28;20029;-52
2022/05/18 07:33:47;;;;;;;8.65;4.32;;;18.00;99.90;;;;;;5058029;28;20361;-52
2022/05/18 07:36:14;;;;;;;6.35;4.28;;;18.10;99.80;;;;;;5057939;28;20025;-54
2022/05/18 07:38:40;;;;;;;7.80;4.25;;;18.10;99.90;;;;;;5057910;28;20416;-53
2022/05/18 07:41:08;;;;;;;12.65;4.18;;;18.20;99.60;;;;;;5057844;28;20029;-51
2022/05/18 07:43:34;;;;;;;7.72;5.05;;;18.20;99.60;;;;;;5056360;28;20464;-52
2022/05/18 07:46:00;;;;;;;9.40;6.28;;;18.30;99.90;;;;;;5056228;28;20059;-50
2022/05/18 07:48:27;;;;;;;8.52;5.63;;;18.40;99.90;;;;;;5057752;28;20023;-54
2022/05/18 07:50:53;;;;;;;6.85;5.80;;;18.50;99.90;;;;;;5057589;28;20063;-52
2022/05/18 07:53:20;;;;;;;13.18;5.53;;;18.50;99.90;;;;;;5057727;28;20017;-53
2022/05/18 07:55:46;;;;;;;8.73;5.53;;;18.50;99.90;;;;;;5057607;28;20443;-53
2022/05/18 07:58:15;;;;;;;7.95;6.22;;;18.70;99.90;;;;;;5057661;28;20016;-52
2022/05/18 08:00:41;;;;;;;7.50;5.60;;;18.50;99.90;;;;;;5057830;28;20072;-51
2022/05/18 08:03:09;;;;;;;7.85;5.50;;;18.70;99.90;;;;;;5057740;28;20017;-52
2022/05/18 08:05:35;;;;;;;10.73;6.28;;;18.60;99.60;;;;;;5057627;28;20039;-54
2022/05/18 08:08:06;;;;;;;7.60;5.63;;;18.80;99.90;;;;;;5057784;28;20016;-50
2022/05/18 08:16:00;;;;;;;8.18;5.28;;;19.00;99.90;;;;;;5057409;28;20063;-53
2022/05/18 08:18:26;;;;;;;14.65;5.43;;;19.10;99.10;;;;;;5056428;28;20025;-53
2022/05/18 08:20:51;;;;;;;11.00;4.88;;;19.30;98.40;;;;;;5057445;28;20108;-51
2022/05/18 08:23:17;;;;;;;6.80;5.07;;;19.30;98.80;;;;;;5057454;28;20127;-54
2022/05/18 08:25:46;;;;;;;11.73;4.75;;;19.30;97.60;;;;;;5057406;28;20025;-53
2022/05/18 08:28:11;;;;;;;9.35;5.45;;;19.50;99.20;;;;;;5057588;28;20498;-53
2022/05/18 08:30:39;;;;;;;8.38;4.65;;;19.40;97.20;;;;;;5057444;28;20033;-50
2022/05/18 08:33:05;;;;;;;14.75;5.07;;;19.40;96.40;;;;;;5057420;28;20074;-51
2022/05/18 08:35:31;;;;;;;9.38;4.38;;;19.70;98.30;;;;;;5056312;28;20047;-54
2022/05/18 08:37:57;;;;;;;12.18;4.55;;;19.80;97.60;;;;;;5056187;28;20425;-54
2022/05/18 08:40:29;;;;;;;9.93;4.05;;;19.90;95.70;;;;;;5050931;28;20025;-55
2022/05/18 08:43:07;;;;;;;13.63;4.03;;;19.90;95.30;;;;;;5041576;28;20037;-53
2022/05/18 08:45:36;;;;;;;10.80;4.25;;;20.00;96.50;;;;;;5042090;28;20028;-53
2022/05/18 08:48:09;;;;;;;10.18;4.07;;;19.90;93.80;;;;;;5042075;28;20044;-49
2022/05/18 08:50:37;;;;;;;11.02;4.60;;;19.80;93.40;;;;;;5043033;28;20524;-49
2022/05/18 08:53:21;;;;;;;10.50;4.45;;;19.90;95.20;;;;;;5041649;28;20033;-54
2022/05/18 08:56:11;;;;;;;10.48;4.55;;;20.10;96.10;;;;;;5041522;28;20484;-48
2022/05/18 08:58:43;;;;;;;6.72;4.72;;;20.30;94.60;;;;;;5041949;28;20056;-47
2022/05/18 09:01:14;;;;;;;9.20;4.13;;;20.40;94.00;;;;;;5042942;28;20376;-50
2022/05/18 09:03:54;;;;;;;7.65;3.65;;;20.30;94.10;;;;;;5043537;28;20065;-51
2022/05/18 09:06:38;;;;;;;14.00;4.50;;;20.50;94.70;;;;;;5043206;28;20028;-55
2022/05/18 09:12:05;;;;;;;5.80;3.92;;;20.90;92.40;;;;;;5042961;28;22756;-55
2022/05/18 09:14:39;;;;;;;6.05;3.65;;;21.00;92.40;;;;;;5062775;28;20099;-55
2022/05/18 09:17:10;;;;;;;11.30;3.50;;;21.10;92.00;;;;;;5062617;28;20071;-55
2022/05/18 09:19:54;;;;;;;5.07;3.40;;;21.30;90.40;;;;;;5062766;28;20036;-56
2022/05/18 09:23:03;;;;;;;10.55;4.32;;;21.00;90.00;;;;;;5042774;28;20052;-53
2022/05/18 09:25:46;;;;;;;9.20;3.22;;;21.10;90.40;;;;;;5062624;28;20028;-55
2022/05/18 09:28:30;;;;;;;11.38;4.30;;;21.40;88.90;;;;;;5062513;28;20056;-53
2022/05/18 09:31:09;;;;;;;7.28;4.43;;;21.10;88.10;;;;;;5062666;28;20604;-51
2022/05/18 09:33:56;;;;;;;7.90;3.90;;;21.30;89.70;;;;;;5062351;28;20035;-54
2022/05/18 09:36:33;;;;;;;7.47;3.47;;;21.60;89.40;;;;;;5062605;28;22635;-55
2022/05/18 09:39:13;;;;;;;15.00;3.53;;;21.80;89.10;;;;;;5062271;28;20040;-50
2022/05/18 09:41:45;;;;;;;10.88;3.38;;;22.10;87.90;;;;;;5062600;28;20074;-55
2022/05/18 09:44:21;;;;;;;6.78;3.35;;;22.00;86.80;;;;;;5061663;28;20499;-55
2022/05/18 09:46:48;;;;;;;12.93;3.35;;;21.90;85.90;;;;;;5057290;28;20037;-55
2022/05/18 09:49:26;;;;;;;6.50;2.70;;;21.90;86.50;;;;;;5041912;28;20031;-49
2022/05/18 09:51:52;;;;;;;5.10;3.13;;;22.30;86.80;;;;;;5040561;28;20029;-52
2022/05/18 09:54:18;;;;;;;8.85;3.17;;;22.40;83.30;;;;;;5042571;28;20164;-53
2022/05/18 09:56:57;;;;;;;7.47;3.33;;;22.40;84.10;;;;;;5042516;28;20111;-52
2022/05/18 09:59:28;;;;;;;9.25;2.70;;;22.40;81.30;;;;;;5041838;28;20451;-53
2022/05/18 10:07:28;;;;;;;5.95;2.60;;;22.70;83.70;;;;;;5052447;28;20040;-53
2022/05/18 10:10:08;;;;;;;8.80;2.42;;;22.70;81.40;;;;;;5051894;28;20029;-54
2022/05/18 10:12:59;;;;;;;4.97;2.70;;;23.00;78.00;;;;;;5051320;28;20385;-54
2022/05/18 10:15:25;;;;;;;9.65;2.50;;;23.00;76.30;;;;;;5048296;28;20100;-49
2022/05/18 10:18:29;;;;;;;7.20;2.33;;;23.10;76.00;;;;;;5051177;28;20036;-50
2022/05/18 10:21:05;;;;;;;;;;;23.30;75.90;;;;;;5043400;28;20040;-52
2022/05/18 10:23:36;;;;;;;9.98;2.60;;;23.30;74.30;;;;;;5051011;28;19917;-50
2022/05/18 10:26:07;;;;;;;11.88;3.10;;;23.40;76.80;;;;;;5051252;28;20446;-51
2022/05/18 10:28:33;;;;;;;5.93;2.60;;;23.60;73.70;;;;;;5050905;28;20093;-56
2022/05/18 10:31:05;;;;;;;8.30;2.15;;;23.80;71.10;;;;;;5050952;28;20108;-51
2022/05/18 10:33:38;;;;;;;7.63;2.70;;;23.80;72.30;;;;;;5050967;28;20078;-51
2022/05/18 10:36:16;;;;;;;7.50;2.88;;;23.80;71.70;;;;;;5051263;28;20021;-48
2022/05/18 10:38:52;;;;;;;5.22;1.75;;;23.90;72.30;;;;;;5050737;28;20078;-55
2022/05/18 10:41:21;;;;;;;5.35;2.03;;;24.00;70.20;;;;;;5050820;28;20293;-48
2022/05/18 10:44:10;;;;;;;3.97;2.13;;;24.10;69.00;;;;;;5050879;28;20025;-52
2022/05/18 10:46:40;;;;;;;5.78;2.67;;;24.00;67.50;;;;;;5051625;28;20025;-50
2022/05/18 10:49:39;;;;;;;6.90;2.25;;;24.00;68.00;;;;;;5051855;28;20082;-54
2022/05/18 10:52:30;;;;;;;8.02;3.30;;;24.00;70.20;;;;;;5051629;28;20100;-50
2022/05/18 10:55:06;;;;;;;17.40;4.60;;;24.00;69.60;;;;;;5050200;28;20036;-54
2022/05/18 10:57:38;;;;;;;10.43;3.10;;;24.30;68.60;;;;;;5050030;28;20044;-53
2022/05/18 11:00:17;;;;;;;7.82;2.70;;;24.30;67.10;;;;;;5050357;28;20104;-54
2022/05/18 11:03:05;;;;;;;4.72;2.30;;;24.40;67.80;;;;;;5049961;28;20477;-53
2022/05/18 11:05:44;;;;;;;6.20;2.38;;;24.30;69.80;;;;;;5050201;28;20024;-53
2022/05/18 11:08:14;;;;;;;6.75;3.08;;;24.30;67.10;;;;;;5050470;28;20032;-52
2022/05/18 11:11:17;;;;;;;4.28;2.20;;;23.90;67.00;;;;;;5050187;28;20407;-55
2022/05/18 11:14:17;;;;;;;8.85;2.25;;;24.10;65.50;;;;;;5049936;28;20028;-53
2022/05/18 11:17:13;;;;;;;11.27;2.50;;;24.10;65.00;;;;;;5045664;28;20063;-53
2022/05/18 11:20:08;;;;;;;9.02;1.83;;;24.20;65.00;;;;;;5050035;28;20051;-53
2022/05/18 11:23:15;;;;;;;7.57;2.13;;;24.40;64.10;;;;;;5050291;28;20061;-53
2022/05/18 11:25:56;;;;;;;9.15;2.15;;;24.40;65.30;;;;;;5048826;28;20383;-49
2022/05/18 11:28:30;;;;;;;4.95;2.28;;;24.90;64.40;;;;;;5050028;28;20024;-52
2022/05/18 11:31:11;;;;;;;13.50;2.22;;;24.90;60.00;;;;;;5050102;28;20441;-51
2022/05/18 11:34:10;;;;;;;7.20;1.70;;;25.00;62.00;;;;;;5049994;28;20025;-53
2022/05/18 11:37:13;;;;;;;10.68;2.40;;;24.80;61.00;;;;;;5049675;28;20025;-52
2022/05/18 11:39:57;;;;;;;10.02;2.00;;;25.00;61.50;;;;;;5049945;28;20040;-56
2022/05/18 11:42:41;;;;;;;6.50;1.80;;;25.10;61.80;;;;;;5050169;28;20052;-55
2022/05/18 11:45:19;;;;;;;4.00;1.60;;;25.40;60.90;;;;;;5049779;28;20021;-51
2022/05/18 11:48:10;;;;;;;2.65;1.80;;;25.50;59.70;;;;;;5049778;28;20025;-52
2022/05/18 11:50:48;;;;;;;5.63;2.03;;;25.40;59.00;;;;;;5049767;28;20122;-51
2022/05/18 11:53:46;;;;;;;4.85;2.00;;;25.60;60.00;;;;;;5049669;28;20021;-51
2022/05/18 11:56:33;;;;;;;6.95;2.33;;;26.00;60.00;;;;;;5037583;28;20041;-53
2022/05/18 11:59:31;;;;;;;8.93;1.98;;;26.30;57.20;;;;;;5049988;28;20033;-56
2022/05/18 12:02:14;;;;;;;2.63;1.80;;;26.50;55.90;;;;;;5049810;28;20120;-52
2022/05/18 12:05:01;;;;;;;4.60;2.10;;;26.60;52.90;;;;;;5049536;28;20539;-53
2022/05/18 12:08:10;;;;;;;7.03;1.75;;;27.10;55.30;;;;;;5049905;28;20037;-53
2022/05/18 12:10:44;;;;;;;3.60;1.65;;;28.00;53.40;;;;;;5050151;28;20020;-56
2022/05/18 12:13:32;;;;;;;6.80;1.90;;;28.60;54.20;;;;;;5050920;28;20040;-54
2022/05/18 12:16:26;;;;;;;4.82;1.90;;;29.00;52.50;;;;;;5053219;28;20028;-54
2022/05/18 12:19:07;;;;;;;2.72;1.55;;;29.40;49.90;;;;;;5053412;28;20024;-57
2022/05/18 12:21:40;;;;;;;6.35;1.40;;;29.30;48.10;;;;;;5053650;28;20100;-58
2022/05/18 12:24:07;;;;;;;6.95;1.48;;;29.40;48.20;;;;;;5054111;28;20068;-57
2022/05/18 12:26:37;;;;;;;3.17;1.60;;;29.60;47.10;;;;;;5054310;28;20120;-56
2022/05/18 12:29:04;;;;;;;3.55;1.67;;;30.00;49.80;;;;;;5054132;28;20025;-57
2022/05/18 12:31:32;;;;;;;4.50;1.58;;;30.30;46.20;;;;;;5054175;28;20569;-58
2022/05/18 12:34:05;;;;;;;11.70;1.88;;;30.40;47.90;;;;;;5053949;28;20025;-56
2022/05/18 12:36:46;;;;;;;8.88;1.80;;;30.30;44.20;;;;;;5053731;28;20028;-58
2022/05/18 12:39:41;;;;;;;2.45;1.50;;;30.70;47.00;;;;;;5053943;28;20037;-57
2022/05/18 12:42:10;;;;;;;7.72;1.58;;;31.30;44.70;;;;;;5053993;28;20021;-57
2022/05/18 12:44:51;;;;;;;5.90;1.80;;;31.60;43.90;;;;;;5053737;28;20024;-58
2022/05/18 12:50:35;;;;;;;9.35;1.67;;;31.20;44.20;;;;;;5054311;28;20052;-57
2022/05/18 12:53:11;;;;;;;3.95;1.40;;;31.80;44.50;;;;;;5053578;28;20100;-57
2022/05/18 12:55:39;;;;;;;6.70;1.38;;;30.60;42.00;;;;;;5053688;28;20714;-57
2022/05/18 12:58:29;;;;;;;5.50;1.35;;;31.40;41.20;;;;;;5053750;28;20040;-57
2022/05/18 13:01:15;;;;;;;3.08;1.15;;;31.20;41.40;;;;;;5053660;28;20028;-56
2022/05/18 13:03:43;;;;;;;5.40;1.50;;;32.40;40.90;;;;;;5053545;28;20112;-57
2022/05/18 13:06:22;;;;;;;9.77;1.50;;;31.50;40.20;;;;;;5053479;28;20468;-57
2022/05/18 13:09:29;;;;;;;5.68;1.10;;;30.70;40.50;;;;;;5053052;28;20040;-56
2022/05/18 13:12:23;;;;;;;4.78;1.13;;;30.80;43.60;;;;;;5050002;28;20029;-54
2022/05/18 13:15:14;;;;;;;6.97;1.63;;;31.70;41.70;;;;;;5052227;28;20547;-56
2022/05/18 13:17:46;;;;;;;2.75;1.38;;;31.40;40.90;;;;;;5052453;28;20033;-56
2022/05/18 13:20:29;;;;;;;3.88;1.50;;;31.50;40.20;;;;;;5052472;28;20112;-58
2022/05/18 13:23:24;;;;;;;2.20;1.20;;;31.90;39.70;;;;;;5051504;28;20052;-58